Share

Sitka, AK

Sitka Rocky Gutierrez (PASI) Elev 20 ft | 57.05 °N, 135.36 °W | Change Station

Current weather conditions updated 59 minutes ago

Overcast
Overcast
47 °F
Feels Like 47 °F
N
6
Wind Variable Wind from West
Sunrise 5:47 AM
Sunset 8:15 PM
Moon Waning Gibbous

Tomorrow is forecast to be nearly the same temperature as today. Morning showers.

Pressure 29.42 in
Visibility 10.0 miles
Clouds Scattered Clouds 2000 ft
Overcast 8000 ft
Dew Point 41 °F
Humidity 80%
Rainfall 0.03 in
Snow Depth Not available.
UV 0 out of 16
Pollen Not available.
Air Quality Not available.
Flu Activity Sporadic
METAR PASI 180253Z 28005KT 10SM SCT020 OVC080 08/05 A2941 RMK AO2 SLP960 60000 T00830050 53012

More Conditions Fewer Conditions

Pressure 29.42 in
Visibility 10.0 miles
Clouds Scattered Clouds 2000 ft
Overcast 8000 ft
Dew Point 41 °F
Humidity 80%
Rainfall 0.03 in
Snow Depth Not available.
UV 0 out of 16
Pollen Not available.
Air Quality Not available.
Flu Activity Sporadic
METAR PASI 180253Z 28005KT 10SM SCT020 OVC080 08/05 A2941 RMK AO2 SLP960 60000 T00830050 53012

More Conditions Fewer Conditions

10-Day Forecast

Almanac

Astronomy

Apr. 17, 2014 Rise Set
Actual Time 5:47 AM AKDT 8:15 PM AKDT
Civil Twilight 5:05 AM AKDT 8:58 PM AKDT
Nautical Twilight 4:10 AM AKDT 9:53 PM AKDT
Astronomical Twilight 3:01 AM AKDT 11:04 PM AKDT
Moon 11:36 PM AKDT (4/17) 7:03 AM AKDT (4/17)
Length of Visible Light 15h 52m
Length of Day
14h 28m
Tomorrow will be 4m 44s longer.
Waning Gibbous, 91% of the Moon is Illuminated
Today
Waning Gibbous
Apr 22
Last Quarter
Apr 29
New
May 6
First Quarter
May 14
Full

Today's Extremes

State Highs State Lows

Community

  • SUNRISE THROUGH THE TREES.
    SUNRISE THROUGH THE TREES.
  • Dog Wood Blossoms
    Dog Wood Blossoms
  • Morning Light
    Morning Light
  • New Day
    New Day
  • Lake Michigan Sunrise
    Lake Michigan Sunrise

WunderPhotos

Upload Photos

1,702,244 photos uploaded!

WunderBlogs® & News

Nearby

Snow Depth

Station Depth Elevation
Long Lake 99 in 820 ft
Upper Tsaina River 55 in 1750 ft
Moraine 9 in 2100 ft
Grandview 36 in 1100 ft
Grouse Creek Divide 26 in 700 ft

Coastal Water Temperatures

Place Temperature
No Stations Reporting

Earthquake Activity

City Distance Mag. Time & Date
No recent earthquake activity has been reported nearby.
Minimum magnitude displayed is 2.5.

Nearby Weather Stations

Station Location Temp. Windchill Dew Point Humidity Wind Precip. Elev Updated Type
CRN USGS SITKA MAGNETIC SITKA 1 NE AK , Sitka, AK 47 °F 47 °F - - North  at  - 0.00 in / hr 78 ft 7:15 PM AKDT MADIS

Show More Stations Show Fewer Stations

What do you think?

We're not finished. Please let us know what you like, what you don't like, and what you are still missing.